createdAt,value
2018-12-21T00:01:26.387Z,6.86
2018-12-21T00:06:43.857Z,6.86
2018-12-21T00:12:01.433Z,6.93
2018-12-21T00:17:19.195Z,6.99
2018-12-21T00:22:36.659Z,6.99
2018-12-21T00:27:54.134Z,6.92
2018-12-21T00:33:17.194Z,6.97
2018-12-21T00:38:40.536Z,6.94
2018-12-21T00:43:59.994Z,6.94
2018-12-21T00:49:17.456Z,6.96
2018-12-21T00:54:34.940Z,6.95
2018-12-21T00:59:52.485Z,6.83
2018-12-21T01:05:10.009Z,6.95
2018-12-21T01:10:27.622Z,6.89
2018-12-21T01:15:45.449Z,6.97
2018-12-21T01:21:02.911Z,7.01
2018-12-21T01:26:20.372Z,7.03
2018-12-21T01:31:37.827Z,7.01
2018-12-21T01:36:55.286Z,7.09
2018-12-21T01:42:12.753Z,7.09
2018-12-21T01:47:30.297Z,7.16
2018-12-21T01:52:47.765Z,7.11
2018-12-21T01:58:05.222Z,7.16
2018-12-21T02:03:22.702Z,7.19
2018-12-21T02:08:40.257Z,7.09
2018-12-21T02:13:57.715Z,7.04
2018-12-21T02:19:15.186Z,6.96
2018-12-21T02:24:32.637Z,6.92
2018-12-21T02:29:50.309Z,6.91
2018-12-21T02:35:07.763Z,6.83
2018-12-21T02:40:25.226Z,6.79
2018-12-21T02:45:42.686Z,6.78
2018-12-21T02:51:00.158Z,6.79
2018-12-21T02:56:17.620Z,6.81
2018-12-21T03:01:35.096Z,6.80
2018-12-21T03:06:52.553Z,6.86
2018-12-21T03:12:10.007Z,6.91
2018-12-21T03:17:27.463Z,6.98
2018-12-21T03:22:44.917Z,6.91
2018-12-21T03:28:02.378Z,6.95
2018-12-21T03:33:19.861Z,7.02
2018-12-21T03:38:37.321Z,7.04
2018-12-21T03:43:54.791Z,7.00
2018-12-21T03:49:12.243Z,6.94
2018-12-21T03:54:29.697Z,6.94
2018-12-21T03:59:47.144Z,6.83
2018-12-21T04:05:05.069Z,6.71
2018-12-21T04:10:22.532Z,6.62
2018-12-21T04:15:39.992Z,6.61
2018-12-21T04:20:57.584Z,6.64
2018-12-21T04:26:15.119Z,6.76
2018-12-21T04:31:32.579Z,6.83
2018-12-21T04:36:50.050Z,6.89
2018-12-21T04:42:07.775Z,6.90
2018-12-21T04:47:25.225Z,6.87
2018-12-21T04:52:43.436Z,6.80
2018-12-21T04:58:01.268Z,6.76
2018-12-21T05:03:18.724Z,6.79
2018-12-21T05:08:36.437Z,6.77
2018-12-21T05:13:53.895Z,6.77
2018-12-21T05:19:11.357Z,6.76
2018-12-21T05:24:28.821Z,6.79
2018-12-21T05:29:46.289Z,6.81
2018-12-21T05:35:04.262Z,6.83
2018-12-21T05:40:21.804Z,6.84
2018-12-21T05:45:39.265Z,6.83
2018-12-21T05:50:56.985Z,6.83
2018-12-21T05:56:14.444Z,6.82
2018-12-21T06:01:31.913Z,6.81
2018-12-21T06:06:49.391Z,6.83
2018-12-21T06:12:06.836Z,6.86
2018-12-21T06:17:24.304Z,6.90
2018-12-21T06:22:41.767Z,6.93
2018-12-21T06:27:59.444Z,6.95
2018-12-21T06:33:16.900Z,6.98
2018-12-21T06:38:34.366Z,6.97
2018-12-21T06:43:51.931Z,7.04
2018-12-21T06:49:09.384Z,7.11
2018-12-21T06:54:26.837Z,7.14
2018-12-21T06:59:44.300Z,7.13
2018-12-21T07:05:01.768Z,7.10
2018-12-21T07:10:19.223Z,7.15
2018-12-21T07:15:36.970Z,7.14
2018-12-21T07:20:54.461Z,7.20
2018-12-21T07:26:11.924Z,7.25
2018-12-21T07:31:29.386Z,7.23
2018-12-21T07:36:46.848Z,7.25
2018-12-21T07:42:04.303Z,7.31
2018-12-21T07:47:21.782Z,7.30
2018-12-21T07:52:39.269Z,7.35
2018-12-21T07:57:58.631Z,7.36
2018-12-21T08:03:16.226Z,7.35
2018-12-21T08:08:33.704Z,7.47
2018-12-21T08:13:51.174Z,7.53
2018-12-21T08:19:08.629Z,7.58
2018-12-21T08:24:26.339Z,7.58
2018-12-21T08:29:43.794Z,7.61
2018-12-21T08:35:01.337Z,7.67
2018-12-21T08:40:18.806Z,7.69
2018-12-21T08:45:36.268Z,7.68
2018-12-21T08:50:53.804Z,7.78
2018-12-21T08:56:11.301Z,7.78
2018-12-21T09:01:29.009Z,7.84
2018-12-21T09:06:46.460Z,7.92
2018-12-21T09:12:04.080Z,7.98
2018-12-21T09:17:21.534Z,8.07
2018-12-21T09:22:38.997Z,8.06
2018-12-21T09:27:56.452Z,8.11
2018-12-21T09:33:13.912Z,8.18
2018-12-21T09:38:31.368Z,8.17
2018-12-21T09:43:48.818Z,8.18
2018-12-21T09:49:06.285Z,8.26
2018-12-21T09:54:23.741Z,8.30
2018-12-21T09:59:41.209Z,8.31
2018-12-21T10:04:58.922Z,8.44
2018-12-21T10:10:16.380Z,8.48
2018-12-21T10:15:33.843Z,8.52
2018-12-21T10:20:51.298Z,8.66
2018-12-21T10:26:08.785Z,8.70
2018-12-21T10:31:26.492Z,8.82
2018-12-21T10:36:44.005Z,8.91
2018-12-21T10:42:01.460Z,9.01
2018-12-21T10:47:18.921Z,9.11
2018-12-21T10:52:36.364Z,9.17
2018-12-21T10:57:53.817Z,9.26
2018-12-21T11:03:11.280Z,9.56
2018-12-21T11:08:28.805Z,9.59
2018-12-21T11:13:46.280Z,9.64
2018-12-21T11:19:03.741Z,9.76
2018-12-21T11:24:21.201Z,9.89
2018-12-21T11:29:38.657Z,10.04
2018-12-21T11:34:56.140Z,10.23
2018-12-21T11:40:13.930Z,10.44
2018-12-21T11:45:31.453Z,10.55
2018-12-21T11:50:48.945Z,10.75
2018-12-21T11:56:06.437Z,10.89
2018-12-21T12:01:23.908Z,11.06
2018-12-21T12:06:41.389Z,11.30
2018-12-21T12:11:58.861Z,11.47
2018-12-21T12:17:16.317Z,11.54
2018-12-21T12:22:33.789Z,11.56
2018-12-21T12:27:51.270Z,11.60
2018-12-21T12:33:08.739Z,11.76
2018-12-21T12:38:26.202Z,11.79
2018-12-21T12:43:43.678Z,11.85
2018-12-21T12:49:01.186Z,11.97
2018-12-21T12:54:18.656Z,11.95
2018-12-21T12:59:36.129Z,11.92
2018-12-21T13:04:53.629Z,11.93
2018-12-21T13:10:11.084Z,11.88
2018-12-21T13:15:28.653Z,12.02
2018-12-21T13:20:46.126Z,12.03
2018-12-21T13:26:03.671Z,11.95
2018-12-21T13:31:21.156Z,12.00
2018-12-21T13:36:38.925Z,11.94
2018-12-21T13:41:56.398Z,12.00
2018-12-21T13:47:13.872Z,12.03
2018-12-21T13:52:31.332Z,12.03
2018-12-21T13:57:48.795Z,11.99
2018-12-21T14:03:06.653Z,12.06
2018-12-21T14:08:24.125Z,12.17
2018-12-21T14:13:41.915Z,12.09
2018-12-21T14:18:59.588Z,12.03
2018-12-21T14:24:17.071Z,12.02
2018-12-21T14:29:34.520Z,11.98
2018-12-21T14:34:51.989Z,11.88
2018-12-21T14:40:09.485Z,11.89
2018-12-21T14:45:26.932Z,11.78
2018-12-21T14:50:44.389Z,11.76
2018-12-21T14:56:01.857Z,11.76
2018-12-21T15:01:19.408Z,11.64
2018-12-21T15:06:36.969Z,11.62
2018-12-21T15:11:54.569Z,11.56
2018-12-21T15:17:12.024Z,11.69
2018-12-21T15:22:29.518Z,11.67
2018-12-21T15:27:46.991Z,11.65
2018-12-21T15:33:04.506Z,11.55
2018-12-21T15:38:21.986Z,11.55
2018-12-21T15:43:39.486Z,11.49
2018-12-21T15:48:56.944Z,11.41
2018-12-21T15:54:14.504Z,11.39
2018-12-21T15:59:32.053Z,11.31
2018-12-21T16:04:49.530Z,11.31
2018-12-21T16:10:09.566Z,11.25
2018-12-21T16:15:27.029Z,11.16
2018-12-21T16:20:44.517Z,11.14
2018-12-21T16:26:03.577Z,11.15
2018-12-21T16:31:21.414Z,11.10
2018-12-21T16:36:38.880Z,11.18
2018-12-21T16:41:56.348Z,11.10
2018-12-21T16:47:13.830Z,11.14
2018-12-21T16:52:31.332Z,11.09
2018-12-21T16:57:49.217Z,10.98
2018-12-21T17:03:15.376Z,10.94
2018-12-21T17:08:26.175Z,10.77
2018-12-21T17:13:43.636Z,10.65
2018-12-21T17:19:01.581Z,10.31
2018-12-21T17:24:19.049Z,10.04
2018-12-21T17:29:36.529Z,9.93
2018-12-21T17:34:55.891Z,9.94
2018-12-21T17:40:13.485Z,9.86
2018-12-21T17:45:30.948Z,9.95
2018-12-21T17:50:48.414Z,9.90
2018-12-21T17:56:05.876Z,9.79
2018-12-21T18:01:23.349Z,9.70
2018-12-21T18:06:41.362Z,9.77
2018-12-21T18:11:59.313Z,9.87
2018-12-21T18:17:16.854Z,10.04
2018-12-21T18:22:34.334Z,10.09
2018-12-21T18:27:51.796Z,10.17
2018-12-21T18:33:10.805Z,10.18
2018-12-21T18:38:28.830Z,10.28
2018-12-21T18:43:47.269Z,10.28
2018-12-21T18:49:04.763Z,10.36
2018-12-21T18:54:22.241Z,10.38
2018-12-21T18:59:39.708Z,10.40
2018-12-21T19:04:57.178Z,10.39
2018-12-21T19:10:14.876Z,10.30
2018-12-21T19:15:32.389Z,10.28
2018-12-21T19:20:49.861Z,10.29
2018-12-21T19:26:07.320Z,10.20
2018-12-21T19:31:25.131Z,10.25
2018-12-21T19:36:42.596Z,10.31
2018-12-21T19:42:00.056Z,10.29
2018-12-21T19:47:17.646Z,10.31
2018-12-21T19:52:35.160Z,10.32
2018-12-21T19:57:53.002Z,10.31
2018-12-21T20:03:10.475Z,10.28
2018-12-21T20:08:28.073Z,10.33
2018-12-21T20:13:45.559Z,10.33
2018-12-21T20:19:03.043Z,10.32
2018-12-21T20:24:23.069Z,10.35
2018-12-21T20:29:40.419Z,10.28
2018-12-21T20:34:57.939Z,10.30
2018-12-21T20:40:15.395Z,10.43
2018-12-21T20:45:32.870Z,10.35
2018-12-21T20:50:50.583Z,10.30
2018-12-21T20:56:08.049Z,10.26
2018-12-21T21:01:25.515Z,10.22
2018-12-21T21:06:43.293Z,10.15
2018-12-21T21:12:00.751Z,10.12
2018-12-21T21:17:18.225Z,10.20
2018-12-21T21:22:35.747Z,10.17
2018-12-21T21:27:53.221Z,10.11
2018-12-21T21:33:10.689Z,10.08
2018-12-21T21:38:28.172Z,10.10
2018-12-21T21:43:45.882Z,10.08
2018-12-21T21:49:03.375Z,10.00
2018-12-21T21:54:21.187Z,9.99
2018-12-21T21:59:38.693Z,10.00
2018-12-21T22:04:56.155Z,9.97
2018-12-21T22:10:13.620Z,9.98
2018-12-21T22:15:31.088Z,9.92
2018-12-21T22:20:48.990Z,9.90
2018-12-21T22:26:06.462Z,9.89
2018-12-21T22:31:24.043Z,9.86
2018-12-21T22:36:41.530Z,9.90
2018-12-21T22:41:59.073Z,9.83
2018-12-21T22:47:16.552Z,9.81
2018-12-21T22:52:34.012Z,9.86
2018-12-21T22:57:56.409Z,9.81
2018-12-21T23:03:10.966Z,9.78
2018-12-21T23:08:28.437Z,9.74
2018-12-21T23:13:45.917Z,9.76
2018-12-21T23:19:03.373Z,9.72
2018-12-21T23:24:20.846Z,9.65
2018-12-21T23:29:38.304Z,9.63
2018-12-21T23:34:55.761Z,9.64
2018-12-21T23:40:15.351Z,9.66
2018-12-21T23:45:32.977Z,9.59
2018-12-21T23:50:50.448Z,9.60
2018-12-21T23:56:11.958Z,9.57
